Airfield :







YOU CAN JOIN US ON...

 
LOGIN :

Register | Disclaimer

   EN    FR    IT 

 









Legend :    VFR   Marginal VFR   IFR   Intensive IFR   Very Intensive IFR
Visi :
Ceiling :
>= 8 km
>= 3000ft
5 to 8 km
1000 to 3000 ft
1500m to 5 km
500 to 1000 ft
800 to 1500m
200 to 500 ft
< 800m
< 200 ft
Symbols :   Thunderstorms  Fog  Heavy snow  Heavy precipitations  Wind > 20 kt






- Airport Elevation : 83 ft


KBHB - Hancock County-Bar Harbor

CURRENT METAR :
  • 162056Z AUTO 32006KT 10SM CLR M03/M14 A3044 RMK AO2 SLP309 T10281139 53007 FZRANO

EXPIRED METARs :
  • 161956Z AUTO 33006KT 10SM CLR M02/M14 A3043 RMK AO2 SLP306 T10221139 FZRANO
  • 161856Z AUTO 30007KT 270V340 10SM CLR M02/M14 A3042 RMK AO2 SLP303 T10171144 FZRANO

TAF KBHB
Valid from the 16 at 18:00 until the 17 at 18:00 UTC


161720Z 1618/1718 32010G18KT P6SM SKC
FM162300 34004KT P6SM SKC
FM171100 VRB03KT P6SM SKC



MET'MAP, your aeronautical weather chart ! - Copyright ORBIFLY December 2007 - Disclaimer

ORBIFLY MET'MAP TEAM :

Programming & Development : Alexandra Zaïnal
Concept & Development : Baudouin d'Aumeries
Co-Development & Prog : Marc-Olivier Méhu
Technical & hardware support : Manuel Goepfert

Contact : metmap@orbifly.com




SOURCES & CREDITS :

   NOAA